createdAt,value
2022-11-08T00:01:59.697Z,7.43
2022-11-08T00:04:26.249Z,7.42
2022-11-08T00:07:11.191Z,7.39
2022-11-08T00:09:56.547Z,7.33
2022-11-08T00:12:41.887Z,7.32
2022-11-08T00:15:09.348Z,7.32
2022-11-08T00:17:35.805Z,7.26
2022-11-08T00:20:02.173Z,7.28
2022-11-08T00:22:31.807Z,7.35
2022-11-08T00:24:58.402Z,7.32
2022-11-08T00:27:25.206Z,7.34
2022-11-08T00:29:51.713Z,7.32
2022-11-08T00:32:20.890Z,7.29
2022-11-08T00:34:48.646Z,7.29
2022-11-08T00:37:16.340Z,7.34
2022-11-08T00:39:43.064Z,7.37
2022-11-08T00:42:09.651Z,7.38
2022-11-08T00:44:36.209Z,7.37
2022-11-08T00:47:02.869Z,7.37
2022-11-08T00:49:29.327Z,7.62
2022-11-08T00:51:55.728Z,7.58
2022-11-08T00:54:22.219Z,7.67
2022-11-08T00:56:49.421Z,7.74
2022-11-08T00:59:18.637Z,7.89
2022-11-08T01:01:46.127Z,7.88
2022-11-08T01:04:13.745Z,7.82
2022-11-08T01:06:40.720Z,7.81
2022-11-08T01:09:08.194Z,7.81
2022-11-08T01:11:35.309Z,7.81
2022-11-08T01:14:02.203Z,7.81
2022-11-08T01:16:31.140Z,7.97
2022-11-08T01:18:58.517Z,7.96
2022-11-08T01:21:25.787Z,7.99
2022-11-08T01:23:54.139Z,8.05
2022-11-08T01:26:23.394Z,8.21
2022-11-08T01:28:50.218Z,8.31
2022-11-08T01:31:19.430Z,8.40
2022-11-08T01:33:50.872Z,8.33
2022-11-08T01:36:20.704Z,8.22
2022-11-08T01:38:47.431Z,8.29
2022-11-08T01:41:15.271Z,8.34
2022-11-08T01:43:58.620Z,8.39
2022-11-08T01:46:51.364Z,8.28
2022-11-08T01:49:39.921Z,8.40
2022-11-08T01:52:09.004Z,8.37
2022-11-08T01:54:44.222Z,8.27
2022-11-08T01:57:16.439Z,8.17
2022-11-08T01:59:45.570Z,8.25
2022-11-08T02:02:12.815Z,8.15
2022-11-08T02:04:41.478Z,8.16
2022-11-08T02:07:09.312Z,8.08
2022-11-08T02:09:38.704Z,8.05
2022-11-08T02:12:07.663Z,8.07
2022-11-08T02:14:34.839Z,8.02
2022-11-08T02:17:01.352Z,7.94
2022-11-08T02:19:49.576Z,7.90
2022-11-08T02:22:47.197Z,7.85
2022-11-08T02:25:13.736Z,7.81
2022-11-08T02:27:40.129Z,7.79
2022-11-08T02:30:06.998Z,7.85
2022-11-08T02:32:41.131Z,7.79
2022-11-08T02:35:13.823Z,7.80
2022-11-08T02:37:40.381Z,7.76
2022-11-08T02:40:07.873Z,7.84
2022-11-08T02:42:34.277Z,7.77
2022-11-08T02:45:00.648Z,7.69
2022-11-08T02:47:27.073Z,7.63
2022-11-08T02:49:53.428Z,7.56
2022-11-08T02:52:19.852Z,7.54
2022-11-08T02:54:46.322Z,7.50
2022-11-08T02:57:12.776Z,7.46
2022-11-08T02:59:39.198Z,7.43
2022-11-08T03:02:05.718Z,7.38
2022-11-08T03:04:32.198Z,7.29
2022-11-08T03:06:58.557Z,7.22
2022-11-08T03:09:27.011Z,7.20
2022-11-08T03:11:53.626Z,7.15
2022-11-08T03:14:20.195Z,7.11
2022-11-08T03:16:46.570Z,7.07
2022-11-08T03:19:12.986Z,7.06
2022-11-08T03:21:39.384Z,7.04
2022-11-08T03:24:06.114Z,7.02
2022-11-08T03:26:32.738Z,7.03
2022-11-08T03:28:59.096Z,6.95
2022-11-08T03:31:25.487Z,6.89
2022-11-08T03:33:51.848Z,6.89
2022-11-08T03:36:18.241Z,6.86
2022-11-08T03:38:44.613Z,6.89
2022-11-08T03:41:10.984Z,6.83
2022-11-08T03:43:37.340Z,6.78
2022-11-08T03:46:03.716Z,6.76
2022-11-08T03:48:30.053Z,6.76
2022-11-08T03:50:56.407Z,6.81
2022-11-08T03:53:22.835Z,6.83
2022-11-08T03:55:49.219Z,6.81
2022-11-08T03:58:15.867Z,6.89
2022-11-08T04:00:42.443Z,6.88
2022-11-08T04:03:09.465Z,6.85
2022-11-08T04:05:35.953Z,6.84
2022-11-08T04:08:04.645Z,6.85
2022-11-08T04:10:31.047Z,6.88
2022-11-08T04:13:18.196Z,6.88
2022-11-08T04:15:45.000Z,6.86
2022-11-08T04:18:30.253Z,6.88
2022-11-08T04:21:18.833Z,6.81
2022-11-08T04:23:46.865Z,6.76
2022-11-08T04:26:13.326Z,6.70
2022-11-08T04:28:41.171Z,6.69
2022-11-08T04:31:10.790Z,6.64
2022-11-08T04:33:37.153Z,6.58
2022-11-08T04:36:06.004Z,6.51
2022-11-08T04:38:32.934Z,6.42
2022-11-08T04:41:04.752Z,6.38
2022-11-08T04:43:32.512Z,6.37
2022-11-08T04:46:00.736Z,6.28
2022-11-08T04:48:27.156Z,6.27
2022-11-08T04:50:53.973Z,6.24
2022-11-08T04:53:20.811Z,6.17
2022-11-08T04:55:47.173Z,6.12
2022-11-08T04:58:13.719Z,6.09
2022-11-08T05:00:40.143Z,6.03
2022-11-08T05:03:06.567Z,6.00
2022-11-08T05:05:32.937Z,5.94
2022-11-08T05:07:59.363Z,5.96
2022-11-08T05:10:25.850Z,5.90
2022-11-08T05:12:56.640Z,5.89
2022-11-08T05:15:23.334Z,5.87
2022-11-08T05:17:49.758Z,5.93
2022-11-08T05:20:34.861Z,5.88
2022-11-08T05:23:21.192Z,5.88
2022-11-08T05:25:47.666Z,5.85
2022-11-08T05:28:14.807Z,5.86
2022-11-08T05:30:41.645Z,5.77
2022-11-08T05:33:08.390Z,5.78
2022-11-08T05:35:34.873Z,5.75
2022-11-08T05:38:01.303Z,5.73
2022-11-08T05:40:33.036Z,5.66
2022-11-08T05:42:59.950Z,5.67
2022-11-08T05:45:26.326Z,5.64
2022-11-08T05:47:52.871Z,5.61
2022-11-08T05:50:19.739Z,5.65
2022-11-08T05:52:46.363Z,5.63
2022-11-08T05:55:12.791Z,5.54
2022-11-08T05:57:42.568Z,5.57
2022-11-08T06:00:10.196Z,5.57
2022-11-08T06:02:36.505Z,5.53
2022-11-08T06:05:03.013Z,5.55
2022-11-08T06:07:29.406Z,5.55
2022-11-08T06:09:55.809Z,5.53
2022-11-08T06:12:22.167Z,5.54
2022-11-08T06:14:48.606Z,5.53
2022-11-08T06:17:15.220Z,5.49
2022-11-08T06:19:41.631Z,5.50
2022-11-08T06:22:07.995Z,5.57
2022-11-08T06:24:34.411Z,5.54
2022-11-08T06:27:00.734Z,5.51
2022-11-08T06:29:27.428Z,5.62
2022-11-08T06:31:53.951Z,5.69
2022-11-08T06:34:20.347Z,5.69
2022-11-08T06:36:46.955Z,5.72
2022-11-08T06:39:13.362Z,5.76
2022-11-08T06:41:39.730Z,5.78
2022-11-08T06:44:06.257Z,5.78
2022-11-08T06:46:32.716Z,5.84
2022-11-08T06:48:59.062Z,5.96
2022-11-08T06:51:25.446Z,5.95
2022-11-08T06:53:51.829Z,5.95
2022-11-08T06:56:18.199Z,6.14
2022-11-08T06:58:44.612Z,6.23
2022-11-08T07:01:11.587Z,6.27
2022-11-08T07:03:38.072Z,6.35
2022-11-08T07:06:05.806Z,6.46
2022-11-08T07:08:33.488Z,6.53
2022-11-08T07:11:00.178Z,6.81
2022-11-08T07:13:26.594Z,6.97
2022-11-08T07:15:53.040Z,7.29
2022-11-08T07:18:19.934Z,7.21
2022-11-08T07:20:47.330Z,7.27
2022-11-08T07:23:14.102Z,7.56
2022-11-08T07:25:40.472Z,7.92
2022-11-08T07:28:12.394Z,8.27
2022-11-08T07:30:38.754Z,8.65
2022-11-08T07:33:05.157Z,9.09
2022-11-08T07:35:31.721Z,9.49
2022-11-08T07:37:58.279Z,10.09
2022-11-08T07:40:24.921Z,10.57
2022-11-08T07:45:37.852Z,11.43
2022-11-08T07:48:11.000Z,11.61
2022-11-08T07:50:38.428Z,12.54
2022-11-08T07:53:04.933Z,12.27
2022-11-08T07:55:31.340Z,12.69
2022-11-08T07:58:01.931Z,13.02
2022-11-08T08:00:32.807Z,13.14
2022-11-08T08:03:00.042Z,13.46
2022-11-08T08:05:28.301Z,13.85
2022-11-08T08:08:01.995Z,13.54
2022-11-08T08:10:29.386Z,13.57
2022-11-08T08:12:56.101Z,13.20
2022-11-08T08:15:22.974Z,13.53
2022-11-08T08:17:49.458Z,13.70
2022-11-08T08:20:15.915Z,13.58
2022-11-08T08:22:50.337Z,13.67
2022-11-08T08:25:17.525Z,13.96
2022-11-08T08:27:54.929Z,14.53
2022-11-08T08:30:22.301Z,14.97
2022-11-08T08:33:02.160Z,14.74
2022-11-08T08:35:36.636Z,14.40
2022-11-08T08:38:04.630Z,14.38
2022-11-08T08:40:31.635Z,13.98
2022-11-08T08:42:59.960Z,14.41
2022-11-08T08:45:27.125Z,14.40
2022-11-08T08:47:55.182Z,14.31
2022-11-08T08:50:22.269Z,14.46
2022-11-08T08:52:48.792Z,14.08
2022-11-08T08:55:15.680Z,14.30
2022-11-08T08:57:46.698Z,14.21
2022-11-08T09:03:05.634Z,14.03
2022-11-08T09:05:33.285Z,14.54
2022-11-08T09:08:00.110Z,14.49
2022-11-08T09:10:28.014Z,14.69
2022-11-08T09:12:54.417Z,14.08
2022-11-08T09:15:20.841Z,14.33
2022-11-08T09:17:48.105Z,14.50
2022-11-08T09:20:17.592Z,14.31
2022-11-08T09:22:48.028Z,14.45
2022-11-08T09:25:20.388Z,14.22
2022-11-08T09:27:47.530Z,14.43
2022-11-08T09:30:14.047Z,13.77
2022-11-08T09:32:59.628Z,13.80
2022-11-08T09:35:26.906Z,13.64
2022-11-08T09:37:53.834Z,13.76
2022-11-08T09:40:53.739Z,13.71
2022-11-08T09:43:34.959Z,13.98
2022-11-08T09:46:01.379Z,13.85
2022-11-08T09:48:33.037Z,14.13
2022-11-08T09:51:05.828Z,14.22
2022-11-08T09:53:45.412Z,14.56
2022-11-08T09:56:42.666Z,14.66
2022-11-08T09:59:23.957Z,14.70
2022-11-08T10:01:50.753Z,15.09
2022-11-08T10:04:21.321Z,14.79
2022-11-08T10:07:09.857Z,14.97
2022-11-08T10:09:48.709Z,14.49
2022-11-08T10:12:25.468Z,14.46
2022-11-08T10:15:07.083Z,14.72
2022-11-08T10:17:36.411Z,14.81
2022-11-08T10:20:14.929Z,14.93
2022-11-08T10:22:52.519Z,14.85
2022-11-08T10:25:28.840Z,14.67
2022-11-08T10:27:59.152Z,15.01
2022-11-08T10:30:36.294Z,15.22
2022-11-08T10:33:16.121Z,15.42
2022-11-08T10:35:48.235Z,15.73
2022-11-08T10:38:24.890Z,15.48
2022-11-08T10:41:04.970Z,15.88
2022-11-08T10:43:36.305Z,15.87
2022-11-08T10:46:02.708Z,16.05
2022-11-08T10:48:29.465Z,15.97
2022-11-08T10:50:55.857Z,15.91
2022-11-08T10:53:32.150Z,16.21
2022-11-08T10:56:06.073Z,16.67
2022-11-08T10:58:42.327Z,16.56
2022-11-08T11:01:23.580Z,16.32
2022-11-08T11:03:51.785Z,17.16
2022-11-08T11:06:32.848Z,16.56
2022-11-08T11:09:02.892Z,16.69
2022-11-08T11:11:32.228Z,16.70
2022-11-08T11:14:22.274Z,16.35
2022-11-08T11:16:54.456Z,16.46
2022-11-08T11:19:21.450Z,16.85
2022-11-08T11:22:07.977Z,16.90
2022-11-08T11:24:36.296Z,16.76
2022-11-08T11:27:06.242Z,16.63
2022-11-08T11:29:39.293Z,16.07
2022-11-08T11:32:32.107Z,15.57
2022-11-08T11:35:00.805Z,15.32
2022-11-08T11:37:40.996Z,15.34
2022-11-08T11:40:32.495Z,15.16
2022-11-08T11:43:14.707Z,15.06
2022-11-08T11:45:45.375Z,15.03
2022-11-08T11:48:17.188Z,15.10
2022-11-08T11:50:49.138Z,14.96
2022-11-08T11:53:28.467Z,14.83
2022-11-08T11:56:32.287Z,14.99
2022-11-08T11:59:13.587Z,14.89
2022-11-08T12:01:58.850Z,14.88
2022-11-08T12:04:46.498Z,14.82
2022-11-08T12:07:24.454Z,14.78
2022-11-08T12:10:20.888Z,14.63
2022-11-08T12:12:56.276Z,14.52
2022-11-08T12:15:41.857Z,14.53
2022-11-08T12:18:42.790Z,14.68
2022-11-08T12:21:15.008Z,14.65
2022-11-08T12:24:04.114Z,14.60
2022-11-08T12:26:39.047Z,14.56
2022-11-08T12:29:11.653Z,14.55
2022-11-08T12:32:05.931Z,14.30
2022-11-08T12:34:59.424Z,14.23
2022-11-08T12:37:47.636Z,14.15
2022-11-08T12:40:17.011Z,14.22
2022-11-08T12:42:58.590Z,14.01
2022-11-08T12:45:36.992Z,13.98
2022-11-08T12:48:22.999Z,13.97
2022-11-08T12:51:07.405Z,13.92
2022-11-08T12:54:03.114Z,14.06
2022-11-08T12:56:41.307Z,13.92
2022-11-08T12:59:38.329Z,13.86
2022-11-08T13:02:13.555Z,13.65
2022-11-08T13:05:01.074Z,13.54
2022-11-08T13:07:38.064Z,13.60
2022-11-08T13:10:31.557Z,13.55
2022-11-08T13:13:16.002Z,13.55
2022-11-08T13:16:09.271Z,13.54
2022-11-08T13:18:42.963Z,13.53
2022-11-08T13:21:34.121Z,13.56
2022-11-08T13:24:09.897Z,13.51
2022-11-08T13:26:50.162Z,13.51
2022-11-08T13:29:19.323Z,13.45
2022-11-08T13:31:57.884Z,13.37
2022-11-08T13:34:54.441Z,13.30
2022-11-08T13:37:42.795Z,13.23
2022-11-08T13:40:28.267Z,13.26
2022-11-08T13:43:16.190Z,13.26
2022-11-08T13:45:44.246Z,13.25
2022-11-08T13:48:34.409Z,13.29
2022-11-08T13:51:26.843Z,13.21
2022-11-08T13:53:57.912Z,13.18
2022-11-08T13:56:46.328Z,13.11
2022-11-08T13:59:39.236Z,13.02
2022-11-08T14:02:23.579Z,13.03
2022-11-08T14:04:50.305Z,13.00
2022-11-08T14:07:35.446Z,12.96
2022-11-08T14:10:22.065Z,12.90
2022-11-08T14:13:22.600Z,12.85
2022-11-08T14:15:55.229Z,12.84
2022-11-08T14:18:33.413Z,12.77
2022-11-08T14:21:00.371Z,12.75
2022-11-08T14:23:37.898Z,12.69
2022-11-08T14:26:10.965Z,12.67
2022-11-08T14:28:40.670Z,12.64
2022-11-08T14:31:21.828Z,12.59
2022-11-08T14:33:48.309Z,12.58
2022-11-08T14:36:17.125Z,12.58
2022-11-08T14:39:03.286Z,12.49
2022-11-08T14:41:31.660Z,12.52
2022-11-08T14:44:00.219Z,12.51
2022-11-08T14:46:31.563Z,12.46
2022-11-08T14:48:58.187Z,12.37
2022-11-08T14:51:25.913Z,12.33
2022-11-08T14:53:54.887Z,12.32
2022-11-08T14:56:26.708Z,12.28
2022-11-08T14:58:55.185Z,12.28
2022-11-08T15:01:26.611Z,12.28
2022-11-08T15:03:57.212Z,12.12
2022-11-08T15:06:54.693Z,12.02
2022-11-08T15:09:32.130Z,12.00
2022-11-08T15:12:00.763Z,11.92
2022-11-08T15:14:31.518Z,11.94
2022-11-08T15:17:02.816Z,11.91
2022-11-08T15:19:40.031Z,11.89
2022-11-08T15:22:31.371Z,11.81
2022-11-08T15:25:25.435Z,11.77
2022-11-08T15:27:51.909Z,11.74
2022-11-08T15:30:30.490Z,11.69
2022-11-08T15:32:57.290Z,11.68
2022-11-08T15:35:32.126Z,11.68
2022-11-08T15:38:04.069Z,11.64
2022-11-08T15:40:32.335Z,11.61
2022-11-08T15:43:00.047Z,11.56
2022-11-08T15:45:33.049Z,11.54
2022-11-08T15:48:08.184Z,11.54
2022-11-08T15:50:34.524Z,11.51
2022-11-08T15:53:02.601Z,11.58
2022-11-08T15:55:34.988Z,11.47
2022-11-08T15:58:02.850Z,11.44
2022-11-08T16:00:31.887Z,11.46
2022-11-08T16:02:58.379Z,11.40
2022-11-08T16:05:27.194Z,11.47
2022-11-08T16:07:54.374Z,11.42
2022-11-08T16:10:31.934Z,11.36
2022-11-08T16:13:01.035Z,11.36
2022-11-08T16:15:30.687Z,11.24
2022-11-08T16:17:57.059Z,11.15
2022-11-08T16:20:31.179Z,11.24
2022-11-08T16:22:59.693Z,11.27
2022-11-08T16:25:27.780Z,11.17
2022-11-08T16:28:02.663Z,11.09
2022-11-08T16:30:31.350Z,11.07
2022-11-08T16:32:58.306Z,11.06
2022-11-08T16:35:25.772Z,11.01
2022-11-08T16:37:53.404Z,11.05
2022-11-08T16:40:22.961Z,11.01
2022-11-08T16:42:51.950Z,10.97
2022-11-08T16:45:37.297Z,11.01
2022-11-08T16:48:07.529Z,11.01
2022-11-08T16:50:33.896Z,10.94
2022-11-08T16:53:00.257Z,10.93
2022-11-08T16:55:26.645Z,10.92
2022-11-08T16:57:53.030Z,10.94
2022-11-08T17:00:20.138Z,10.89
2022-11-08T17:02:49.866Z,10.87
2022-11-08T17:05:22.264Z,10.86
2022-11-08T17:07:51.078Z,10.80
2022-11-08T17:10:20.883Z,10.85
2022-11-08T17:12:48.264Z,10.86
2022-11-08T17:15:18.055Z,10.87
2022-11-08T17:17:45.179Z,10.85
2022-11-08T17:20:14.496Z,10.87
2022-11-08T17:22:42.277Z,10.93
2022-11-08T17:25:11.651Z,10.89
2022-11-08T17:27:38.685Z,10.84
2022-11-08T17:30:06.530Z,10.88
2022-11-08T17:32:34.735Z,10.93
2022-11-08T17:35:01.400Z,10.84
2022-11-08T17:37:27.864Z,10.81
2022-11-08T17:39:55.601Z,10.85
2022-11-08T17:42:22.665Z,10.89
2022-11-08T17:44:50.170Z,10.82
2022-11-08T17:47:16.741Z,10.91
2022-11-08T17:49:44.251Z,10.97
2022-11-08T17:52:11.692Z,10.82
2022-11-08T17:54:38.192Z,10.85
2022-11-08T17:57:04.631Z,10.84
2022-11-08T17:59:30.983Z,10.78
2022-11-08T18:01:57.572Z,10.75
2022-11-08T18:04:24.014Z,10.80
2022-11-08T18:06:50.627Z,10.92
2022-11-08T18:09:17.415Z,10.92
2022-11-08T18:11:49.807Z,11.09
2022-11-08T18:14:18.528Z,11.15
2022-11-08T18:16:45.444Z,11.12
2022-11-08T18:19:11.780Z,11.09
2022-11-08T18:21:38.212Z,11.15
2022-11-08T18:24:04.768Z,11.13
2022-11-08T18:26:31.127Z,11.12
2022-11-08T18:28:57.770Z,11.10
2022-11-08T18:31:24.561Z,11.07
2022-11-08T18:33:51.007Z,11.07
2022-11-08T18:36:22.638Z,11.12
2022-11-08T18:38:49.966Z,11.21
2022-11-08T18:41:22.697Z,11.17
2022-11-08T18:43:49.223Z,11.29
2022-11-08T18:46:17.994Z,11.24
2022-11-08T18:48:45.004Z,11.21
2022-11-08T18:51:13.452Z,11.27
2022-11-08T18:53:40.618Z,11.22
2022-11-08T18:56:08.129Z,11.31
2022-11-08T18:58:34.463Z,11.13
2022-11-08T19:01:01.627Z,11.19
2022-11-08T19:03:28.808Z,11.17
2022-11-08T19:05:55.270Z,11.18
2022-11-08T19:08:27.332Z,11.26
2022-11-08T19:10:56.890Z,11.30
2022-11-08T19:13:25.167Z,11.41
2022-11-08T19:16:06.550Z,11.37
2022-11-08T19:18:34.757Z,11.29
2022-11-08T19:21:05.170Z,11.38
2022-11-08T19:23:32.487Z,11.49
2022-11-08T19:26:01.940Z,11.44
2022-11-08T19:28:33.072Z,11.51
2022-11-08T19:31:00.169Z,11.54
2022-11-08T19:33:28.904Z,11.42
2022-11-08T19:35:59.386Z,11.37
2022-11-08T19:38:25.899Z,11.31
2022-11-08T19:40:52.329Z,11.35
2022-11-08T19:43:19.137Z,11.37
2022-11-08T19:45:52.184Z,11.30
2022-11-08T19:48:18.877Z,11.25
2022-11-08T19:50:45.600Z,11.19
2022-11-08T19:53:12.073Z,11.29
2022-11-08T19:55:38.449Z,11.28
2022-11-08T19:58:04.864Z,11.26
2022-11-08T20:00:31.309Z,11.30
2022-11-08T20:02:57.738Z,11.23
2022-11-08T20:05:24.150Z,11.17
2022-11-08T20:07:50.743Z,11.20
2022-11-08T20:10:17.613Z,11.29
2022-11-08T20:12:44.226Z,11.31
2022-11-08T20:15:10.878Z,11.33
2022-11-08T20:17:37.396Z,11.21
2022-11-08T20:20:04.245Z,11.31
2022-11-08T20:22:30.720Z,11.21
2022-11-08T20:24:57.151Z,11.16
2022-11-08T20:27:23.680Z,11.31
2022-11-08T20:29:50.069Z,11.35
2022-11-08T20:32:16.487Z,11.29
2022-11-08T20:34:42.872Z,11.33
2022-11-08T20:37:11.008Z,11.24
2022-11-08T20:39:37.409Z,11.21
2022-11-08T20:42:03.766Z,11.28
2022-11-08T20:44:30.348Z,11.27
2022-11-08T20:46:56.708Z,11.29
2022-11-08T20:49:23.384Z,11.29
2022-11-08T20:51:49.880Z,11.20
2022-11-08T20:54:16.702Z,11.22
2022-11-08T20:56:43.245Z,11.19
2022-11-08T20:59:09.772Z,11.08
2022-11-08T21:01:36.285Z,11.15
2022-11-08T21:04:03.069Z,11.13
2022-11-08T21:06:32.994Z,11.08
2022-11-08T21:09:16.583Z,11.06
2022-11-08T21:11:48.779Z,11.06
2022-11-08T21:14:15.228Z,10.92
2022-11-08T21:17:14.554Z,10.92
2022-11-08T21:19:28.132Z,10.94
2022-11-08T21:22:14.480Z,10.81
2022-11-08T21:24:41.955Z,10.85
2022-11-08T21:27:08.499Z,10.78
2022-11-08T21:29:34.841Z,10.70
2022-11-08T21:32:01.233Z,10.70
2022-11-08T21:34:32.510Z,10.64
2022-11-08T21:36:59.877Z,10.51
2022-11-08T21:39:26.624Z,10.50
2022-11-08T21:41:53.100Z,10.45
2022-11-08T21:44:19.807Z,10.35
2022-11-08T21:46:46.255Z,10.24
2022-11-08T21:49:13.574Z,10.23
2022-11-08T21:51:40.007Z,10.29
2022-11-08T21:54:06.501Z,10.35
2022-11-08T21:56:34.597Z,10.32
2022-11-08T21:59:02.012Z,10.24
2022-11-08T22:01:30.620Z,10.25
2022-11-08T22:03:57.974Z,10.15
2022-11-08T22:06:24.555Z,10.14
2022-11-08T22:08:51.070Z,10.19
2022-11-08T22:11:17.889Z,10.01
2022-11-08T22:13:44.361Z,10.04
2022-11-08T22:16:10.745Z,10.08
2022-11-08T22:21:40.012Z,9.97
2022-11-08T22:24:11.220Z,9.98
2022-11-08T22:26:38.107Z,9.95
2022-11-08T22:29:04.703Z,9.81
2022-11-08T22:31:31.627Z,9.79
2022-11-08T22:33:58.270Z,9.76
2022-11-08T22:36:24.649Z,9.86
2022-11-08T22:38:51.044Z,9.75
2022-11-08T22:41:19.094Z,9.79
2022-11-08T22:43:46.414Z,9.70
2022-11-08T22:46:13.732Z,9.65
2022-11-08T22:48:40.609Z,9.63
2022-11-08T22:51:07.476Z,9.64
2022-11-08T22:53:34.038Z,9.60
2022-11-08T22:56:08.275Z,9.63
2022-11-08T22:58:37.609Z,9.56
2022-11-08T23:01:04.491Z,9.50
2022-11-08T23:03:30.924Z,9.37
2022-11-08T23:05:57.607Z,9.31
2022-11-08T23:08:26.129Z,9.51
2022-11-08T23:11:11.624Z,9.44
2022-11-08T23:13:56.982Z,9.40
2022-11-08T23:16:33.551Z,9.31
2022-11-08T23:19:18.586Z,9.31
2022-11-08T23:22:03.414Z,9.37
2022-11-08T23:24:31.533Z,9.27
2022-11-08T23:27:20.888Z,9.20
2022-11-08T23:30:07.118Z,9.32
2022-11-08T23:32:34.319Z,9.22
2022-11-08T23:35:00.822Z,9.20
2022-11-08T23:37:27.631Z,9.28
2022-11-08T23:40:12.479Z,9.26
2022-11-08T23:42:57.980Z,9.16
2022-11-08T23:45:24.361Z,9.12
2022-11-08T23:47:52.611Z,9.08
2022-11-08T23:50:18.964Z,9.20
2022-11-08T23:52:45.397Z,9.19
2022-11-08T23:55:11.745Z,9.12
2022-11-08T23:57:38.081Z,9.23
